PWSweather.com
Personal Weather Stations
Station Observations
KCARIDGE3
Ridgecrest, CA 93555

Ridgecrest, CA 93555

Lat: 35.62083817, Lon: -117.6733017

Elevation: 2315

Station Type:

High Low Average
Temperature 86.4°F30.2°F 66.9°F19.4°F 76.6°F24.8°F
Dew Point 46.6°F8.1°F 40.5°F4.7°F 43.9°F6.6°F
Winds 12.1 mph ENE19.5 mph ENE Calm Calm 3.4 mph 5.5 mph
Wind Gusts 17.0 mph27.4 mph -- 3.4 mph5.5 mph
Humidity 42% 22% 32%
Pressure 0.00 in0.00 in 0.00 in0.00 in -
Precipitation 0.00 in0.00 in - -
Hour Temp Dew Point Humidity Winds Wind Gusts Pressure Precip Precip Rate Daily Precip Total
12:02 AM 74.8°F23.8°C 41.4°F5.2°C 30% 6.9 mph WSW11.1 kmh WSW 6.9 mph11.1 kmh -338605.1 mb - 0.00 in0.0 mm 0.00 in0.0 mm
12:07 AM 74.8°F23.8°C 41.4°F5.2°C 30% 8.1 mph WSW13.0 kmh WSW 8.9 mph14.3 kmh -338605.1 mb - 0.00 in0.0 mm 0.00 in0.0 mm
12:12 AM 74.8°F23.8°C 41.4°F5.2°C 30% 8.1 mph SW13.0 kmh SW 10.1 mph16.3 kmh -338605.1 mb - 0.00 in0.0 mm 0.00 in0.0 mm
12:17 AM 74.7°F23.7°C 41.2°F5.1°C 30% 8.1 mph WSW13.0 kmh WSW 6.9 mph11.1 kmh -338605.1 mb - 0.00 in0.0 mm 0.00 in0.0 mm
12:22 AM 74.7°F23.7°C 41.2°F5.1°C 30% 8.1 mph WSW13.0 kmh WSW 8.9 mph14.3 kmh -338605.1 mb - 0.00 in0.0 mm 0.00 in0.0 mm
12:27 AM 74.7°F23.7°C 42.1°F5.6°C 31% 6.9 mph SW11.1 kmh SW 6.9 mph11.1 kmh -338605.1 mb - 0.00 in0.0 mm 0.00 in0.0 mm
12:32 AM 74.5°F23.6°C 41.0°F5.0°C 30% 6.0 mph SW9.7 kmh SW 4.0 mph6.4 kmh -338605.1 mb - 0.00 in0.0 mm 0.00 in0.0 mm
12:37 AM 74.3°F23.5°C 40.8°F4.9°C 30% 4.9 mph SSW7.9 kmh SSW 4.0 mph6.4 kmh -338605.1 mb - 0.00 in0.0 mm 0.00 in0.0 mm
12:42 AM 74.1°F23.4°C 41.5°F5.3°C 31% 4.0 mph S6.4 kmh S 6.9 mph11.1 kmh -338605.1 mb - 0.00 in0.0 mm 0.00 in0.0 mm
12:47 AM 74.1°F23.4°C 41.5°F5.3°C 31% 4.9 mph SSE7.9 kmh SSE 6.0 mph9.7 kmh -338605.1 mb - 0.00 in0.0 mm 0.00 in0.0 mm
12:52 AM 74.3°F23.5°C 42.6°F5.9°C 32% 6.0 mph SSE9.7 kmh SSE 4.0 mph6.4 kmh -338605.1 mb - 0.00 in0.0 mm 0.00 in0.0 mm
12:57 AM 74.3°F23.5°C 42.6°F5.9°C 32% 4.9 mph SSE7.9 kmh SSE 2.9 mph4.7 kmh -338605.1 mb - 0.00 in0.0 mm 0.00 in0.0 mm
01:02 AM 74.1°F23.4°C 42.4°F5.8°C 32% 2.9 mph SE4.7 kmh SE -- -338605.1 mb - 0.00 in0.0 mm 0.00 in0.0 mm
01:07 AM 74.1°F23.4°C 43.2°F6.2°C 33% 0.9 mph SE1.4 kmh SE -- -338605.1 mb - 0.00 in0.0 mm 0.00 in0.0 mm
01:12 AM 73.9°F23.3°C 43.0°F6.1°C 33% 0.9 mph SE1.4 kmh SE 2.0 mph3.2 kmh -338605.1 mb - 0.00 in0.0 mm 0.00 in0.0 mm
01:17 AM 73.8°F23.2°C 42.8°F6.0°C 33% 2.0 mph SE3.2 kmh SE 2.9 mph4.7 kmh -338605.1 mb - 0.00 in0.0 mm 0.00 in0.0 mm
01:22 AM 73.6°F23.1°C 42.6°F5.9°C 33% 0.9 mph SE1.4 kmh SE 2.0 mph3.2 kmh -338605.1 mb - 0.00 in0.0 mm 0.00 in0.0 mm
01:27 AM 73.0°F22.8°C 42.3°F5.7°C 33% 2.0 mph SE3.2 kmh SE 2.0 mph3.2 kmh -338605.1 mb - 0.00 in0.0 mm 0.00 in0.0 mm
01:32 AM 73.0°F22.8°C 43.0°F6.1°C 34% 2.0 mph SE3.2 kmh SE 4.0 mph6.4 kmh -338605.1 mb - 0.00 in0.0 mm 0.00 in0.0 mm
01:37 AM 73.2°F22.9°C 43.2°F6.2°C 34% 2.9 mph SW4.7 kmh SW 4.9 mph7.9 kmh -338605.1 mb - 0.00 in0.0 mm 0.00 in0.0 mm
01:42 AM 73.8°F23.2°C 42.8°F6.0°C 33% 4.9 mph WSW7.9 kmh WSW 2.9 mph4.7 kmh -338605.1 mb - 0.00 in0.0 mm 0.00 in0.0 mm
01:47 AM 73.8°F23.2°C 42.8°F6.0°C 33% 2.9 mph WSW4.7 kmh WSW 2.0 mph3.2 kmh -338605.1 mb - 0.00 in0.0 mm 0.00 in0.0 mm
01:52 AM 73.6°F23.1°C 42.6°F5.9°C 33% 2.0 mph WSW3.2 kmh WSW 2.0 mph3.2 kmh -338605.1 mb - 0.00 in0.0 mm 0.00 in0.0 mm
01:57 AM 73.4°F23.0°C 43.3°F6.3°C 34% 2.0 mph SW3.2 kmh SW 2.9 mph4.7 kmh -338605.1 mb - 0.00 in0.0 mm 0.00 in0.0 mm
02:02 AM 73.2°F22.9°C 43.2°F6.2°C 34% 2.9 mph SSE4.7 kmh SSE 4.0 mph6.4 kmh -338605.1 mb - 0.00 in0.0 mm 0.00 in0.0 mm
02:07 AM 73.2°F22.9°C 43.2°F6.2°C 34% 4.0 mph SE6.4 kmh SE 2.9 mph4.7 kmh -338605.1 mb - 0.00 in0.0 mm 0.00 in0.0 mm
02:12 AM 73.0°F22.8°C 43.0°F6.1°C 34% 4.9 mph S7.9 kmh S 6.9 mph11.1 kmh -338605.1 mb - 0.00 in0.0 mm 0.00 in0.0 mm
02:17 AM 73.0°F22.8°C 43.0°F6.1°C 34% 6.0 mph S9.7 kmh S 6.0 mph9.7 kmh -338605.1 mb - 0.00 in0.0 mm 0.00 in0.0 mm
02:22 AM 73.2°F22.9°C 43.2°F6.2°C 34% 6.0 mph S9.7 kmh S 4.0 mph6.4 kmh -338605.1 mb - 0.00 in0.0 mm 0.00 in0.0 mm
02:27 AM 73.0°F22.8°C 43.0°F6.1°C 34% 4.0 mph S6.4 kmh S 2.0 mph3.2 kmh -338605.1 mb - 0.00 in0.0 mm 0.00 in0.0 mm
02:32 AM 73.2°F22.9°C 43.2°F6.2°C 34% 2.9 mph S4.7 kmh S 2.0 mph3.2 kmh -338605.1 mb - 0.00 in0.0 mm 0.00 in0.0 mm
02:37 AM 73.6°F23.1°C 43.5°F6.4°C 34% 4.0 mph NW6.4 kmh NW 6.9 mph11.1 kmh -338605.1 mb - 0.00 in0.0 mm 0.00 in0.0 mm
02:42 AM 73.8°F23.2°C 42.8°F6.0°C 33% 4.9 mph WNW7.9 kmh WNW 4.0 mph6.4 kmh -338605.1 mb - 0.00 in0.0 mm 0.00 in0.0 mm
02:47 AM 73.8°F23.2°C 42.1°F5.6°C 32% 4.9 mph W7.9 kmh W 0.9 mph1.4 kmh -338605.1 mb - 0.00 in0.0 mm 0.00 in0.0 mm
02:52 AM 73.8°F23.2°C 42.1°F5.6°C 32% 2.9 mph W4.7 kmh W 2.0 mph3.2 kmh -338605.1 mb - 0.00 in0.0 mm 0.00 in0.0 mm
02:57 AM 73.8°F23.2°C 42.1°F5.6°C 32% 2.0 mph W3.2 kmh W -- -338605.1 mb - 0.00 in0.0 mm 0.00 in0.0 mm
03:02 AM 73.6°F23.1°C 41.9°F5.5°C 32% 0.9 mph W1.4 kmh W -- -338605.1 mb - 0.00 in0.0 mm 0.00 in0.0 mm
03:07 AM 73.6°F23.1°C 41.9°F5.5°C 32% Calm Calm 0.9 mph1.4 kmh -338605.1 mb - 0.00 in0.0 mm 0.00 in0.0 mm
03:12 AM 73.6°F23.1°C 41.9°F5.5°C 32% 0.9 mph W1.4 kmh W 2.9 mph4.7 kmh -338605.1 mb - 0.00 in0.0 mm 0.00 in0.0 mm
03:17 AM 73.4°F23.0°C 42.6°F5.9°C 33% 2.9 mph WSW4.7 kmh WSW 2.9 mph4.7 kmh -338605.1 mb - 0.00 in0.0 mm 0.00 in0.0 mm
03:22 AM 73.2°F22.9°C 42.4°F5.8°C 33% 4.0 mph WSW6.4 kmh WSW 2.0 mph3.2 kmh -338605.1 mb - 0.00 in0.0 mm 0.00 in0.0 mm
03:27 AM 73.0°F22.8°C 43.0°F6.1°C 34% 2.9 mph WSW4.7 kmh WSW 4.0 mph6.4 kmh -338605.1 mb - 0.00 in0.0 mm 0.00 in0.0 mm
03:32 AM 72.9°F22.7°C 42.1°F5.6°C 33% 4.0 mph SW6.4 kmh SW 4.0 mph6.4 kmh -338605.1 mb - 0.00 in0.0 mm 0.00 in0.0 mm
03:37 AM 72.9°F22.7°C 42.8°F6.0°C 34% 4.0 mph SW6.4 kmh SW 2.9 mph4.7 kmh -338605.1 mb - 0.00 in0.0 mm 0.00 in0.0 mm
03:42 AM 72.7°F22.6°C 42.6°F5.9°C 34% 2.0 mph SW3.2 kmh SW 2.0 mph3.2 kmh -338605.1 mb - 0.00 in0.0 mm 0.00 in0.0 mm
03:47 AM 72.7°F22.6°C 42.6°F5.9°C 34% 2.0 mph SW3.2 kmh SW 2.0 mph3.2 kmh -338605.1 mb - 0.00 in0.0 mm 0.00 in0.0 mm
03:52 AM 72.3°F22.4°C 41.5°F5.3°C 33% 2.0 mph SW3.2 kmh SW -- -338605.1 mb - 0.00 in0.0 mm 0.00 in0.0 mm
03:57 AM 72.3°F22.4°C 42.4°F5.8°C 34% 0.9 mph SW1.4 kmh SW -- -338605.1 mb - 0.00 in0.0 mm 0.00 in0.0 mm
04:02 AM 72.1°F22.3°C 42.3°F5.7°C 34% 0.9 mph SW1.4 kmh SW 2.0 mph3.2 kmh -338605.1 mb - 0.00 in0.0 mm 0.00 in0.0 mm
04:07 AM 72.1°F22.3°C 42.3°F5.7°C 34% 0.9 mph SW1.4 kmh SW 2.0 mph3.2 kmh -338605.1 mb - 0.00 in0.0 mm 0.00 in0.0 mm
04:12 AM 72.0°F22.2°C 42.1°F5.6°C 34% 0.9 mph SW1.4 kmh SW -- -338605.1 mb - 0.00 in0.0 mm 0.00 in0.0 mm
04:17 AM 72.0°F22.2°C 42.1°F5.6°C 34% 0.9 mph SW1.4 kmh SW 0.9 mph1.4 kmh -338605.1 mb - 0.00 in0.0 mm 0.00 in0.0 mm
04:22 AM 71.8°F22.1°C 41.9°F5.5°C 34% 0.9 mph SW1.4 kmh SW 2.0 mph3.2 kmh -338605.1 mb - 0.00 in0.0 mm 0.00 in0.0 mm
04:27 AM 71.4°F21.9°C 42.3°F5.7°C 35% 2.0 mph SW3.2 kmh SW 2.9 mph4.7 kmh -338605.1 mb - 0.00 in0.0 mm 0.00 in0.0 mm
04:32 AM 71.2°F21.8°C 42.3°F5.7°C 35% 2.9 mph SW4.7 kmh SW 4.0 mph6.4 kmh -338605.1 mb - 0.00 in0.0 mm 0.00 in0.0 mm
04:37 AM 71.2°F21.8°C 42.3°F5.7°C 35% 2.9 mph SW4.7 kmh SW 2.0 mph3.2 kmh -338605.1 mb - 0.00 in0.0 mm 0.00 in0.0 mm
04:42 AM 71.1°F21.7°C 42.1°F5.6°C 35% 2.0 mph SW3.2 kmh SW 2.0 mph3.2 kmh -338605.1 mb - 0.00 in0.0 mm 0.00 in0.0 mm
04:47 AM 70.9°F21.6°C 42.6°F5.9°C 36% 2.0 mph SW3.2 kmh SW 4.0 mph6.4 kmh -338605.1 mb - 0.00 in0.0 mm 0.00 in0.0 mm
04:52 AM 70.7°F21.5°C 42.4°F5.8°C 36% 2.9 mph SW4.7 kmh SW 2.0 mph3.2 kmh -338605.1 mb - 0.00 in0.0 mm 0.00 in0.0 mm
04:57 AM 70.5°F21.4°C 43.0°F6.1°C 37% 2.0 mph SW3.2 kmh SW -- -338605.1 mb - 0.00 in0.0 mm 0.00 in0.0 mm
05:02 AM 70.3°F21.3°C 42.8°F6.0°C 37% 0.9 mph SW1.4 kmh SW 0.9 mph1.4 kmh -338605.1 mb - 0.00 in0.0 mm 0.00 in0.0 mm
05:07 AM 70.2°F21.2°C 42.6°F5.9°C 37% 2.0 mph SW3.2 kmh SW 2.9 mph4.7 kmh -338605.1 mb - 0.00 in0.0 mm 0.00 in0.0 mm
05:12 AM 70.0°F21.1°C 42.4°F5.8°C 37% 2.0 mph SW3.2 kmh SW 2.0 mph3.2 kmh -338605.1 mb - 0.00 in0.0 mm 0.00 in0.0 mm
05:17 AM 69.8°F21.0°C 42.4°F5.8°C 37% 2.0 mph SW3.2 kmh SW 4.0 mph6.4 kmh -338605.1 mb - 0.00 in0.0 mm 0.00 in0.0 mm
05:22 AM 69.6°F20.9°C 42.3°F5.7°C 37% 2.9 mph SW4.7 kmh SW 2.9 mph4.7 kmh -338605.1 mb - 0.00 in0.0 mm 0.00 in0.0 mm
05:27 AM 69.6°F20.9°C 42.3°F5.7°C 37% 4.0 mph SW6.4 kmh SW 4.0 mph6.4 kmh -338605.1 mb - 0.00 in0.0 mm 0.00 in0.0 mm
05:32 AM 69.3°F20.7°C 41.2°F5.1°C 36% 4.9 mph SW7.9 kmh SW 4.9 mph7.9 kmh -338605.1 mb - 0.00 in0.0 mm 0.00 in0.0 mm
05:37 AM 69.1°F20.6°C 41.0°F5.0°C 36% 4.9 mph SW7.9 kmh SW 2.9 mph4.7 kmh -338605.1 mb - 0.00 in0.0 mm 0.00 in0.0 mm
05:42 AM 69.1°F20.6°C 42.4°F5.8°C 38% 2.9 mph SW4.7 kmh SW -- -338605.1 mb - 0.00 in0.0 mm 0.00 in0.0 mm
05:47 AM 69.1°F20.6°C 42.4°F5.8°C 38% 0.9 mph SW1.4 kmh SW 0.9 mph1.4 kmh -338605.1 mb - 0.00 in0.0 mm 0.00 in0.0 mm
05:52 AM 68.7°F20.4°C 42.1°F5.6°C 38% 2.0 mph SW3.2 kmh SW 2.9 mph4.7 kmh -338605.1 mb - 0.00 in0.0 mm 0.00 in0.0 mm
05:57 AM 68.5°F20.3°C 41.2°F5.1°C 37% 2.0 mph SW3.2 kmh SW 0.9 mph1.4 kmh -338605.1 mb - 0.00 in0.0 mm 0.00 in0.0 mm
06:02 AM 68.5°F20.3°C 41.2°F5.1°C 37% 2.0 mph SW3.2 kmh SW 0.9 mph1.4 kmh -338605.1 mb - 0.00 in0.0 mm 0.00 in0.0 mm
06:07 AM 68.4°F20.2°C 41.7°F5.4°C 38% 0.9 mph SW1.4 kmh SW -- -338605.1 mb - 0.00 in0.0 mm 0.00 in0.0 mm
06:12 AM 68.4°F20.2°C 42.4°F5.8°C 39% Calm Calm 0.9 mph1.4 kmh -338605.1 mb - 0.00 in0.0 mm 0.00 in0.0 mm
06:17 AM 68.2°F20.1°C 42.3°F5.7°C 39% Calm Calm -- -338605.1 mb - 0.00 in0.0 mm 0.00 in0.0 mm
06:22 AM 68.0°F20.0°C 41.4°F5.2°C 38% Calm Calm -- -338605.1 mb - 0.00 in0.0 mm 0.00 in0.0 mm
06:27 AM 67.8°F19.9°C 41.9°F5.5°C 39% Calm Calm -- -338605.1 mb - 0.00 in0.0 mm 0.00 in0.0 mm
06:32 AM 67.6°F19.8°C 42.4°F5.8°C 40% Calm Calm -- -338605.1 mb - 0.00 in0.0 mm 0.00 in0.0 mm
06:37 AM 67.6°F19.8°C 41.7°F5.4°C 39% Calm Calm 2.0 mph3.2 kmh -338605.1 mb - 0.00 in0.0 mm 0.00 in0.0 mm
06:42 AM 67.5°F19.7°C 43.0°F6.1°C 41% 0.9 mph SW1.4 kmh SW 2.0 mph3.2 kmh -338605.1 mb - 0.00 in0.0 mm 0.00 in0.0 mm
06:47 AM 67.3°F19.6°C 42.1°F5.6°C 40% 2.0 mph SW3.2 kmh SW 2.0 mph3.2 kmh -338605.1 mb - 0.00 in0.0 mm 0.00 in0.0 mm
06:52 AM 67.1°F19.5°C 41.9°F5.5°C 40% 2.0 mph SW3.2 kmh SW 2.0 mph3.2 kmh -338605.1 mb - 0.00 in0.0 mm 0.00 in0.0 mm
06:57 AM 66.9°F19.4°C 41.9°F5.5°C 40% 0.9 mph SW1.4 kmh SW 0.9 mph1.4 kmh -338605.1 mb - 0.00 in0.0 mm 0.00 in0.0 mm
07:02 AM 66.9°F19.4°C 41.2°F5.1°C 39% 0.9 mph SW1.4 kmh SW -- -338605.1 mb - 0.00 in0.0 mm 0.00 in0.0 mm
07:07 AM 66.9°F19.4°C 41.2°F5.1°C 39% 0.9 mph SW1.4 kmh SW 0.9 mph1.4 kmh -338605.1 mb - 0.00 in0.0 mm 0.00 in0.0 mm
07:12 AM 67.3°F19.6°C 41.5°F5.3°C 39% 0.9 mph WSW1.4 kmh WSW 2.0 mph3.2 kmh -338605.1 mb - 0.00 in0.0 mm 0.00 in0.0 mm
07:17 AM 67.1°F19.5°C 41.4°F5.2°C 39% 0.9 mph W1.4 kmh W -- -338605.1 mb - 0.00 in0.0 mm 0.00 in0.0 mm
07:22 AM 67.1°F19.5°C 41.4°F5.2°C 39% 0.9 mph W1.4 kmh W -- -338605.1 mb - 0.00 in0.0 mm 0.00 in0.0 mm
07:27 AM 67.1°F19.5°C 40.6°F4.8°C 38% Calm Calm -- -338605.1 mb - 0.00 in0.0 mm 0.00 in0.0 mm
07:32 AM 66.9°F19.4°C 41.2°F5.1°C 39% Calm Calm -- -338605.1 mb - 0.00 in0.0 mm 0.00 in0.0 mm
07:37 AM 66.9°F19.4°C 40.5°F4.7°C 38% Calm Calm -- -338605.1 mb - 0.00 in0.0 mm 0.00 in0.0 mm
07:42 AM 66.9°F19.4°C 40.5°F4.7°C 38% Calm Calm -- -338605.1 mb - 0.00 in0.0 mm 0.00 in0.0 mm
07:47 AM 66.9°F19.4°C 41.2°F5.1°C 39% Calm Calm -- -338605.1 mb - 0.00 in0.0 mm 0.00 in0.0 mm
07:52 AM 66.9°F19.4°C 41.9°F5.5°C 40% Calm Calm 0.9 mph1.4 kmh -338605.1 mb - 0.00 in0.0 mm 0.00 in0.0 mm
07:57 AM 66.9°F19.4°C 43.2°F6.2°C 42% 0.9 mph W1.4 kmh W 2.0 mph3.2 kmh -338605.1 mb - 0.00 in0.0 mm 0.00 in0.0 mm
08:02 AM 67.1°F19.5°C 43.2°F6.2°C 42% 0.9 mph W1.4 kmh W 2.0 mph3.2 kmh -338605.1 mb - 0.00 in0.0 mm 0.00 in0.0 mm
08:07 AM 67.3°F19.6°C 42.8°F6.0°C 41% 2.0 mph W3.2 kmh W -- -338605.1 mb - 0.00 in0.0 mm 0.00 in0.0 mm
08:12 AM 67.5°F19.7°C 43.0°F6.1°C 41% 0.9 mph W1.4 kmh W -- -338605.1 mb - 0.00 in0.0 mm 0.00 in0.0 mm
08:17 AM 67.5°F19.7°C 43.0°F6.1°C 41% 0.9 mph W1.4 kmh W 0.9 mph1.4 kmh -338605.1 mb - 0.00 in0.0 mm 0.00 in0.0 mm
08:22 AM 67.6°F19.8°C 43.2°F6.2°C 41% 2.0 mph S3.2 kmh S 2.9 mph4.7 kmh -338605.1 mb - 0.00 in0.0 mm 0.00 in0.0 mm
08:27 AM 68.0°F20.0°C 44.1°F6.7°C 42% 2.9 mph SSE4.7 kmh SSE 4.9 mph7.9 kmh -338605.1 mb - 0.00 in0.0 mm 0.00 in0.0 mm
08:32 AM 68.2°F20.1°C 44.2°F6.8°C 42% 2.9 mph SSE4.7 kmh SSE 6.0 mph9.7 kmh -338605.1 mb - 0.00 in0.0 mm 0.00 in0.0 mm
08:37 AM 68.7°F20.4°C 44.8°F7.1°C 42% 4.0 mph SSE6.4 kmh SSE 4.0 mph6.4 kmh -338605.1 mb - 0.00 in0.0 mm 0.00 in0.0 mm
08:42 AM 70.3°F21.3°C 45.0°F7.2°C 40% 4.0 mph SW6.4 kmh SW 4.0 mph6.4 kmh -338605.1 mb - 0.00 in0.0 mm 0.00 in0.0 mm
08:47 AM 71.6°F22.0°C 43.9°F6.6°C 37% 4.0 mph WSW6.4 kmh WSW 4.0 mph6.4 kmh -338605.1 mb - 0.00 in0.0 mm 0.00 in0.0 mm
08:52 AM 72.3°F22.4°C 43.9°F6.6°C 36% 4.0 mph W6.4 kmh W 4.0 mph6.4 kmh -338605.1 mb - 0.00 in0.0 mm 0.00 in0.0 mm
08:57 AM 73.0°F22.8°C 44.4°F6.9°C 36% 4.0 mph W6.4 kmh W 6.0 mph9.7 kmh -338605.1 mb - 0.00 in0.0 mm 0.00 in0.0 mm
09:02 AM 73.2°F22.9°C 43.2°F6.2°C 34% 4.9 mph W7.9 kmh W 4.9 mph7.9 kmh -338605.1 mb - 0.00 in0.0 mm 0.00 in0.0 mm
09:07 AM 73.0°F22.8°C 43.0°F6.1°C 34% 4.9 mph W7.9 kmh W 6.0 mph9.7 kmh -338605.1 mb - 0.00 in0.0 mm 0.00 in0.0 mm
09:12 AM 73.0°F22.8°C 42.3°F5.7°C 33% 4.9 mph W7.9 kmh W 6.0 mph9.7 kmh -338605.1 mb - 0.00 in0.0 mm 0.00 in0.0 mm
09:17 AM 73.2°F22.9°C 43.2°F6.2°C 34% 6.0 mph WNW9.7 kmh WNW 6.9 mph11.1 kmh -338605.1 mb - 0.00 in0.0 mm 0.00 in0.0 mm
09:22 AM 73.4°F23.0°C 43.3°F6.3°C 34% 4.9 mph WNW7.9 kmh WNW 6.9 mph11.1 kmh -338605.1 mb - 0.00 in0.0 mm 0.00 in0.0 mm
09:27 AM 73.9°F23.3°C 43.9°F6.6°C 34% 4.9 mph WNW7.9 kmh WNW 4.0 mph6.4 kmh -338605.1 mb - 0.00 in0.0 mm 0.00 in0.0 mm
09:32 AM 74.5°F23.6°C 44.2°F6.8°C 34% 4.9 mph WNW7.9 kmh WNW 4.9 mph7.9 kmh -338605.1 mb - 0.00 in0.0 mm 0.00 in0.0 mm
09:37 AM 74.8°F23.8°C 44.6°F7.0°C 34% 4.9 mph NW7.9 kmh NW 4.9 mph7.9 kmh -338605.1 mb - 0.00 in0.0 mm 0.00 in0.0 mm
09:42 AM 75.4°F24.1°C 45.1°F7.3°C 34% 4.9 mph N7.9 kmh N 4.0 mph6.4 kmh -338605.1 mb - 0.00 in0.0 mm 0.00 in0.0 mm
09:47 AM 75.9°F24.4°C 43.9°F6.6°C 32% 4.9 mph NNE7.9 kmh NNE 8.9 mph14.3 kmh -338605.1 mb - 0.00 in0.0 mm 0.00 in0.0 mm
09:52 AM 76.1°F24.5°C 43.3°F6.3°C 31% 6.9 mph NE11.1 kmh NE 6.9 mph11.1 kmh -338605.1 mb - 0.00 in0.0 mm 0.00 in0.0 mm
09:57 AM 75.6°F24.2°C 41.9°F5.5°C 30% 6.9 mph NNE11.1 kmh NNE 8.1 mph13.0 kmh -338605.1 mb - 0.00 in0.0 mm 0.00 in0.0 mm
10:02 AM 74.8°F23.8°C 41.4°F5.2°C 30% 6.9 mph NNE11.1 kmh NNE 4.9 mph7.9 kmh -338605.1 mb - 0.00 in0.0 mm 0.00 in0.0 mm
10:07 AM 74.7°F23.7°C 41.2°F5.1°C 30% 6.0 mph N9.7 kmh N 6.9 mph11.1 kmh -338605.1 mb - 0.00 in0.0 mm 0.00 in0.0 mm
10:12 AM 74.7°F23.7°C 41.2°F5.1°C 30% 6.0 mph NNE9.7 kmh NNE 6.0 mph9.7 kmh -338605.1 mb - 0.00 in0.0 mm 0.00 in0.0 mm
10:17 AM 75.0°F23.9°C 40.6°F4.8°C 29% 6.0 mph N9.7 kmh N 4.0 mph6.4 kmh -338605.1 mb - 0.00 in0.0 mm 0.00 in0.0 mm
10:22 AM 75.6°F24.2°C 41.0°F5.0°C 29% 4.9 mph N7.9 kmh N 2.9 mph4.7 kmh -338605.1 mb - 0.00 in0.0 mm 0.00 in0.0 mm
10:27 AM 76.3°F24.6°C 41.7°F5.4°C 29% 4.0 mph NNE6.4 kmh NNE 4.9 mph7.9 kmh -338605.1 mb - 0.00 in0.0 mm 0.00 in0.0 mm
10:32 AM 76.6°F24.8°C 41.2°F5.1°C 28% 4.9 mph N7.9 kmh N 4.9 mph7.9 kmh -338605.1 mb - 0.00 in0.0 mm 0.00 in0.0 mm
10:37 AM 77.9°F25.5°C 41.2°F5.1°C 27% 4.9 mph N7.9 kmh N 2.0 mph3.2 kmh -338605.1 mb - 0.00 in0.0 mm 0.00 in0.0 mm
10:42 AM 78.6°F25.9°C 41.9°F5.5°C 27% 4.0 mph N6.4 kmh N 4.9 mph7.9 kmh -338605.1 mb - 0.00 in0.0 mm 0.00 in0.0 mm
10:47 AM 79.2°F26.2°C 42.3°F5.7°C 27% 4.0 mph N6.4 kmh N 2.9 mph4.7 kmh -338605.1 mb - 0.00 in0.0 mm 0.00 in0.0 mm
10:52 AM 79.3°F26.3°C 42.4°F5.8°C 27% 2.9 mph NNE4.7 kmh NNE 2.9 mph4.7 kmh -338605.1 mb - 0.00 in0.0 mm 0.00 in0.0 mm
10:57 AM 79.5°F26.4°C 42.6°F5.9°C 27% 2.9 mph NNE4.7 kmh NNE 2.0 mph3.2 kmh -338605.1 mb - 0.00 in0.0 mm 0.00 in0.0 mm
11:02 AM 79.3°F26.3°C 43.3°F6.3°C 28% 2.9 mph NNE4.7 kmh NNE 2.9 mph4.7 kmh -338605.1 mb - 0.00 in0.0 mm 0.00 in0.0 mm
11:07 AM 79.5°F26.4°C 43.5°F6.4°C 28% 2.0 mph NNE3.2 kmh NNE 0.9 mph1.4 kmh -338605.1 mb - 0.00 in0.0 mm 0.00 in0.0 mm
11:12 AM 79.7°F26.5°C 43.7°F6.5°C 28% 2.0 mph NNE3.2 kmh NNE 2.0 mph3.2 kmh -338605.1 mb - 0.00 in0.0 mm 0.00 in0.0 mm
11:17 AM 79.7°F26.5°C 43.7°F6.5°C 28% 2.0 mph NNE3.2 kmh NNE 2.0 mph3.2 kmh -338605.1 mb - 0.00 in0.0 mm 0.00 in0.0 mm
11:22 AM 80.1°F26.7°C 44.1°F6.7°C 28% 2.0 mph NNE3.2 kmh NNE 2.0 mph3.2 kmh -338605.1 mb - 0.00 in0.0 mm 0.00 in0.0 mm
11:27 AM 80.2°F26.8°C 44.2°F6.8°C 28% 2.0 mph NNE3.2 kmh NNE 2.0 mph3.2 kmh -338605.1 mb - 0.00 in0.0 mm 0.00 in0.0 mm
11:32 AM 80.4°F26.9°C 44.2°F6.8°C 28% 2.0 mph NNE3.2 kmh NNE 0.9 mph1.4 kmh -338605.1 mb - 0.00 in0.0 mm 0.00 in0.0 mm
11:37 AM 80.4°F26.9°C 44.2°F6.8°C 28% 0.9 mph NNE1.4 kmh NNE -- -338605.1 mb - 0.00 in0.0 mm 0.00 in0.0 mm
11:42 AM 80.8°F27.1°C 44.6°F7.0°C 28% 0.9 mph NNE1.4 kmh NNE 2.9 mph4.7 kmh -338605.1 mb - 0.00 in0.0 mm 0.00 in0.0 mm
11:47 AM 81.1°F27.3°C 45.0°F7.2°C 28% 0.9 mph NNE1.4 kmh NNE 2.0 mph3.2 kmh -338605.1 mb - 0.00 in0.0 mm 0.00 in0.0 mm
11:52 AM 81.1°F27.3°C 45.0°F7.2°C 28% 2.0 mph NNE3.2 kmh NNE 2.0 mph3.2 kmh -338605.1 mb - 0.00 in0.0 mm 0.00 in0.0 mm
11:57 AM 81.5°F27.5°C 45.3°F7.4°C 28% 0.9 mph NNE1.4 kmh NNE 0.9 mph1.4 kmh -338605.1 mb - 0.00 in0.0 mm 0.00 in0.0 mm
12:02 PM 81.9°F27.7°C 44.6°F7.0°C 27% 2.0 mph NNE3.2 kmh NNE 4.0 mph6.4 kmh -338605.1 mb - 0.00 in0.0 mm 0.00 in0.0 mm
12:07 PM 82.0°F27.8°C 45.7°F7.6°C 28% 2.9 mph NE4.7 kmh NE 4.9 mph7.9 kmh -338605.1 mb - 0.00 in0.0 mm 0.00 in0.0 mm
12:12 PM 82.6°F28.1°C 45.1°F7.3°C 27% 4.9 mph ENE7.9 kmh ENE 10.1 mph16.3 kmh -338605.1 mb - 0.00 in0.0 mm 0.00 in0.0 mm
12:17 PM 83.1°F28.4°C 45.7°F7.6°C 27% 6.9 mph NE11.1 kmh NE 4.0 mph6.4 kmh -338605.1 mb - 0.00 in0.0 mm 0.00 in0.0 mm
12:22 PM 83.7°F28.7°C 46.2°F7.9°C 27% 8.1 mph ENE13.0 kmh ENE 8.1 mph13.0 kmh -338605.1 mb - 0.00 in0.0 mm 0.00 in0.0 mm
12:27 PM 83.8°F28.8°C 46.2°F7.9°C 27% 8.9 mph E14.3 kmh E 6.9 mph11.1 kmh -338605.1 mb - 0.00 in0.0 mm 0.00 in0.0 mm
12:32 PM 83.7°F28.7°C 46.2°F7.9°C 27% 6.9 mph NE11.1 kmh NE 6.9 mph11.1 kmh -338605.1 mb - 0.00 in0.0 mm 0.00 in0.0 mm
12:37 PM 83.8°F28.8°C 46.2°F7.9°C 27% 6.0 mph E9.7 kmh E 6.9 mph11.1 kmh -338605.1 mb - 0.00 in0.0 mm 0.00 in0.0 mm
12:42 PM 84.0°F28.9°C 46.4°F8.0°C 27% 6.0 mph ENE9.7 kmh ENE 4.9 mph7.9 kmh -338605.1 mb - 0.00 in0.0 mm 0.00 in0.0 mm
12:47 PM 84.0°F28.9°C 46.4°F8.0°C 27% 6.0 mph ENE9.7 kmh ENE 8.1 mph13.0 kmh -338605.1 mb - 0.00 in0.0 mm 0.00 in0.0 mm
12:52 PM 84.2°F29.0°C 46.6°F8.1°C 27% 6.9 mph E11.1 kmh E 6.9 mph11.1 kmh -338605.1 mb - 0.00 in0.0 mm 0.00 in0.0 mm
12:57 PM 84.0°F28.9°C 46.4°F8.0°C 27% 8.9 mph ENE14.3 kmh ENE 8.1 mph13.0 kmh -338605.1 mb - 0.00 in0.0 mm 0.00 in0.0 mm
01:02 PM 83.8°F28.8°C 46.2°F7.9°C 27% 8.9 mph ENE14.3 kmh ENE 8.1 mph13.0 kmh -338605.1 mb - 0.00 in0.0 mm 0.00 in0.0 mm
01:07 PM 83.8°F28.8°C 46.2°F7.9°C 27% 8.9 mph E14.3 kmh E 8.9 mph14.3 kmh -338605.1 mb - 0.00 in0.0 mm 0.00 in0.0 mm
01:12 PM 83.7°F28.7°C 46.2°F7.9°C 27% 10.1 mph E16.3 kmh E 17.0 mph27.4 kmh -338605.1 mb - 0.00 in0.0 mm 0.00 in0.0 mm
01:17 PM 82.8°F28.2°C 46.4°F8.0°C 28% 12.1 mph ENE19.5 kmh ENE 6.9 mph11.1 kmh -338605.1 mb - 0.00 in0.0 mm 0.00 in0.0 mm
01:22 PM 82.6°F28.1°C 46.2°F7.9°C 28% 8.9 mph NE14.3 kmh NE 8.9 mph14.3 kmh -338605.1 mb - 0.00 in0.0 mm 0.00 in0.0 mm
01:27 PM 82.8°F28.2°C 46.4°F8.0°C 28% 6.0 mph NE9.7 kmh NE 6.9 mph11.1 kmh -338605.1 mb - 0.00 in0.0 mm 0.00 in0.0 mm
01:32 PM 82.8°F28.2°C 46.4°F8.0°C 28% 6.9 mph NE11.1 kmh NE 4.9 mph7.9 kmh -338605.1 mb - 0.00 in0.0 mm 0.00 in0.0 mm
01:37 PM 82.8°F28.2°C 46.4°F8.0°C 28% 8.1 mph NE13.0 kmh NE 10.1 mph16.3 kmh -338605.1 mb - 0.00 in0.0 mm 0.00 in0.0 mm
01:42 PM 82.6°F28.1°C 46.2°F7.9°C 28% 8.9 mph NE14.3 kmh NE 6.9 mph11.1 kmh -338605.1 mb - 0.00 in0.0 mm 0.00 in0.0 mm
01:47 PM 82.2°F27.9°C 45.9°F7.7°C 28% 8.9 mph NE14.3 kmh NE 8.1 mph13.0 kmh -338605.1 mb - 0.00 in0.0 mm 0.00 in0.0 mm
01:52 PM 81.9°F27.7°C 46.4°F8.0°C 29% 8.1 mph NE13.0 kmh NE 8.1 mph13.0 kmh -338605.1 mb - 0.00 in0.0 mm 0.00 in0.0 mm
01:57 PM 82.0°F27.8°C 46.6°F8.1°C 29% 8.1 mph NE13.0 kmh NE 6.0 mph9.7 kmh -338605.1 mb - 0.00 in0.0 mm 0.00 in0.0 mm
02:02 PM 82.2°F27.9°C 45.9°F7.7°C 28% 8.1 mph NE13.0 kmh NE 8.9 mph14.3 kmh -338605.1 mb - 0.00 in0.0 mm 0.00 in0.0 mm
02:07 PM 82.4°F28.0°C 46.0°F7.8°C 28% 8.1 mph NE13.0 kmh NE 4.9 mph7.9 kmh -338605.1 mb - 0.00 in0.0 mm 0.00 in0.0 mm
02:12 PM 82.6°F28.1°C 46.2°F7.9°C 28% 6.0 mph ENE9.7 kmh ENE 4.0 mph6.4 kmh -338605.1 mb - 0.00 in0.0 mm 0.00 in0.0 mm
02:17 PM 82.2°F27.9°C 45.9°F7.7°C 28% 6.0 mph NE9.7 kmh NE 6.0 mph9.7 kmh -338605.1 mb - 0.00 in0.0 mm 0.00 in0.0 mm
02:22 PM 81.9°F27.7°C 45.5°F7.5°C 28% 4.9 mph NE7.9 kmh NE 4.0 mph6.4 kmh -338605.1 mb - 0.00 in0.0 mm 0.00 in0.0 mm
02:27 PM 81.7°F27.6°C 46.4°F8.0°C 29% 4.0 mph ENE6.4 kmh ENE 6.9 mph11.1 kmh -338605.1 mb - 0.00 in0.0 mm 0.00 in0.0 mm
02:32 PM 81.5°F27.5°C 46.2°F7.9°C 29% 4.0 mph ESE6.4 kmh ESE 4.9 mph7.9 kmh -338605.1 mb - 0.00 in0.0 mm 0.00 in0.0 mm
02:37 PM 81.3°F27.4°C 46.0°F7.8°C 29% 6.0 mph SE9.7 kmh SE 4.0 mph6.4 kmh -338605.1 mb - 0.00 in0.0 mm 0.00 in0.0 mm
02:42 PM 81.5°F27.5°C 46.2°F7.9°C 29% 6.0 mph SE9.7 kmh SE 6.9 mph11.1 kmh -338605.1 mb - 0.00 in0.0 mm 0.00 in0.0 mm
02:47 PM 81.5°F27.5°C 46.2°F7.9°C 29% 6.0 mph SE9.7 kmh SE 2.9 mph4.7 kmh -338605.1 mb - 0.00 in0.0 mm 0.00 in0.0 mm
02:52 PM 81.7°F27.6°C 46.4°F8.0°C 29% 6.0 mph SE9.7 kmh SE 6.0 mph9.7 kmh -338605.1 mb - 0.00 in0.0 mm 0.00 in0.0 mm
02:57 PM 82.0°F27.8°C 46.6°F8.1°C 29% 6.0 mph ESE9.7 kmh ESE 4.9 mph7.9 kmh -338605.1 mb - 0.00 in0.0 mm 0.00 in0.0 mm
03:02 PM 82.6°F28.1°C 46.2°F7.9°C 28% 6.0 mph E9.7 kmh E 6.0 mph9.7 kmh -338605.1 mb - 0.00 in0.0 mm 0.00 in0.0 mm
03:07 PM 82.9°F28.3°C 46.4°F8.0°C 28% 4.9 mph E7.9 kmh E 4.9 mph7.9 kmh -338605.1 mb - 0.00 in0.0 mm 0.00 in0.0 mm
03:12 PM 83.3°F28.5°C 44.8°F7.1°C 26% 2.9 mph E4.7 kmh E 2.0 mph3.2 kmh -338605.1 mb - 0.00 in0.0 mm 0.00 in0.0 mm
03:17 PM 83.8°F28.8°C 45.3°F7.4°C 26% 2.0 mph E3.2 kmh E -- -338605.1 mb - 0.00 in0.0 mm 0.00 in0.0 mm
03:22 PM 84.6°F29.2°C 45.0°F7.2°C 25% 0.9 mph E1.4 kmh E -- -338605.1 mb - 0.00 in0.0 mm 0.00 in0.0 mm
03:27 PM 85.3°F29.6°C 45.5°F7.5°C 25% 0.9 mph E1.4 kmh E -- -338605.1 mb - 0.00 in0.0 mm 0.00 in0.0 mm
03:32 PM 85.3°F29.6°C 44.4°F6.9°C 24% 0.9 mph NE1.4 kmh NE 4.0 mph6.4 kmh -338605.1 mb - 0.00 in0.0 mm 0.00 in0.0 mm
03:37 PM 85.6°F29.8°C 44.8°F7.1°C 24% 2.0 mph SE3.2 kmh SE 8.1 mph13.0 kmh -338605.1 mb - 0.00 in0.0 mm 0.00 in0.0 mm
03:42 PM 85.6°F29.8°C 44.8°F7.1°C 24% 4.0 mph SE6.4 kmh SE 4.0 mph6.4 kmh -338605.1 mb - 0.00 in0.0 mm 0.00 in0.0 mm
03:47 PM 85.5°F29.7°C 44.6°F7.0°C 24% 4.0 mph S6.4 kmh S -- -338605.1 mb - 0.00 in0.0 mm 0.00 in0.0 mm
03:52 PM 85.6°F29.8°C 44.8°F7.1°C 24% 2.9 mph S4.7 kmh S 4.9 mph7.9 kmh -338605.1 mb - 0.00 in0.0 mm 0.00 in0.0 mm
03:57 PM 85.6°F29.8°C 44.8°F7.1°C 24% 2.9 mph ESE4.7 kmh ESE 2.9 mph4.7 kmh -338605.1 mb - 0.00 in0.0 mm 0.00 in0.0 mm
04:02 PM 85.8°F29.9°C 43.7°F6.5°C 23% 4.9 mph E7.9 kmh E 6.0 mph9.7 kmh -338605.1 mb - 0.00 in0.0 mm 0.00 in0.0 mm
04:07 PM 86.4°F30.2°C 44.2°F6.8°C 23% 6.0 mph E9.7 kmh E 2.9 mph4.7 kmh -338605.1 mb - 0.00 in0.0 mm 0.00 in0.0 mm
04:12 PM 86.4°F30.2°C 43.0°F6.1°C 22% 6.0 mph SSE9.7 kmh SSE 6.0 mph9.7 kmh -338605.1 mb - 0.00 in0.0 mm 0.00 in0.0 mm
04:17 PM 86.4°F30.2°C 43.0°F6.1°C 22% 4.0 mph ENE6.4 kmh ENE 4.0 mph6.4 kmh -338605.1 mb - 0.00 in0.0 mm 0.00 in0.0 mm
04:22 PM 86.4°F30.2°C 43.0°F6.1°C 22% 2.9 mph E4.7 kmh E 4.9 mph7.9 kmh -338605.1 mb - 0.00 in0.0 mm 0.00 in0.0 mm
04:27 PM 86.4°F30.2°C 43.0°F6.1°C 22% 4.0 mph ESE6.4 kmh ESE 4.9 mph7.9 kmh -338605.1 mb - 0.00 in0.0 mm 0.00 in0.0 mm
04:32 PM 86.0°F30.0°C 43.9°F6.6°C 23% 2.0 mph E3.2 kmh E 4.9 mph7.9 kmh -338605.1 mb - 0.00 in0.0 mm 0.00 in0.0 mm
04:37 PM 85.6°F29.8°C 44.8°F7.1°C 24% 4.0 mph ESE6.4 kmh ESE 15.0 mph24.1 kmh -338605.1 mb - 0.00 in0.0 mm 0.00 in0.0 mm
04:42 PM 85.6°F29.8°C 44.8°F7.1°C 24% 8.9 mph SE14.3 kmh SE 8.9 mph14.3 kmh -338605.1 mb - 0.00 in0.0 mm 0.00 in0.0 mm
04:47 PM 85.1°F29.5°C 45.3°F7.4°C 25% 8.9 mph SE14.3 kmh SE 4.0 mph6.4 kmh -338605.1 mb - 0.00 in0.0 mm 0.00 in0.0 mm
04:52 PM 84.7°F29.3°C 45.0°F7.2°C 25% 6.0 mph ESE9.7 kmh ESE 8.9 mph14.3 kmh -338605.1 mb - 0.00 in0.0 mm 0.00 in0.0 mm
04:57 PM 84.9°F29.4°C 45.1°F7.3°C 25% 6.0 mph E9.7 kmh E 6.0 mph9.7 kmh -338605.1 mb - 0.00 in0.0 mm 0.00 in0.0 mm
05:02 PM 84.9°F29.4°C 45.1°F7.3°C 25% 6.9 mph E11.1 kmh E 6.9 mph11.1 kmh -338605.1 mb - 0.00 in0.0 mm 0.00 in0.0 mm
05:07 PM 84.6°F29.2°C 45.0°F7.2°C 25% 6.0 mph SE9.7 kmh SE 4.0 mph6.4 kmh -338605.1 mb - 0.00 in0.0 mm 0.00 in0.0 mm
05:12 PM 84.4°F29.1°C 45.7°F7.6°C 26% 4.9 mph ESE7.9 kmh ESE 4.0 mph6.4 kmh -338605.1 mb - 0.00 in0.0 mm 0.00 in0.0 mm
05:17 PM 84.0°F28.9°C 45.5°F7.5°C 26% 4.9 mph SE7.9 kmh SE 4.9 mph7.9 kmh -338605.1 mb - 0.00 in0.0 mm 0.00 in0.0 mm
05:22 PM 83.8°F28.8°C 45.3°F7.4°C 26% 6.0 mph SE9.7 kmh SE 8.9 mph14.3 kmh -338605.1 mb - 0.00 in0.0 mm 0.00 in0.0 mm
05:27 PM 83.7°F28.7°C 45.1°F7.3°C 26% 6.9 mph SE11.1 kmh SE 4.9 mph7.9 kmh -338605.1 mb - 0.00 in0.0 mm 0.00 in0.0 mm
05:32 PM 83.5°F28.6°C 45.0°F7.2°C 26% 6.9 mph SE11.1 kmh SE 4.9 mph7.9 kmh -338605.1 mb - 0.00 in0.0 mm 0.00 in0.0 mm
05:37 PM 83.5°F28.6°C 46.0°F7.8°C 27% 6.0 mph ESE9.7 kmh ESE 6.9 mph11.1 kmh -338605.1 mb - 0.00 in0.0 mm 0.00 in0.0 mm
05:42 PM 83.3°F28.5°C 45.9°F7.7°C 27% 4.9 mph E7.9 kmh E 4.0 mph6.4 kmh -338605.1 mb - 0.00 in0.0 mm 0.00 in0.0 mm
05:47 PM 83.1°F28.4°C 45.7°F7.6°C 27% 4.0 mph E6.4 kmh E 2.0 mph3.2 kmh -338605.1 mb - 0.00 in0.0 mm 0.00 in0.0 mm
05:52 PM 82.9°F28.3°C 45.5°F7.5°C 27% 2.9 mph E4.7 kmh E 4.0 mph6.4 kmh -338605.1 mb - 0.00 in0.0 mm 0.00 in0.0 mm
05:57 PM 82.8°F28.2°C 45.3°F7.4°C 27% 2.9 mph E4.7 kmh E 2.0 mph3.2 kmh -338605.1 mb - 0.00 in0.0 mm 0.00 in0.0 mm
06:02 PM 82.8°F28.2°C 45.3°F7.4°C 27% 4.0 mph E6.4 kmh E 2.9 mph4.7 kmh -338605.1 mb - 0.00 in0.0 mm 0.00 in0.0 mm
06:07 PM 82.6°F28.1°C 45.1°F7.3°C 27% 4.0 mph E6.4 kmh E 2.9 mph4.7 kmh -338605.1 mb - 0.00 in0.0 mm 0.00 in0.0 mm
06:12 PM 82.4°F28.0°C 45.1°F7.3°C 27% 2.9 mph E4.7 kmh E 0.9 mph1.4 kmh -338605.1 mb - 0.00 in0.0 mm 0.00 in0.0 mm
06:17 PM 82.4°F28.0°C 45.1°F7.3°C 27% 2.0 mph E3.2 kmh E 2.9 mph4.7 kmh -338605.1 mb - 0.00 in0.0 mm 0.00 in0.0 mm
06:22 PM 82.2°F27.9°C 45.0°F7.2°C 27% 2.0 mph E3.2 kmh E 2.0 mph3.2 kmh -338605.1 mb - 0.00 in0.0 mm 0.00 in0.0 mm
06:27 PM 82.2°F27.9°C 43.9°F6.6°C 26% 2.0 mph E3.2 kmh E 2.0 mph3.2 kmh -338605.1 mb - 0.00 in0.0 mm 0.00 in0.0 mm
06:32 PM 82.0°F27.8°C 43.7°F6.5°C 26% 2.0 mph E3.2 kmh E 2.0 mph3.2 kmh -338605.1 mb - 0.00 in0.0 mm 0.00 in0.0 mm
06:37 PM 81.9°F27.7°C 44.6°F7.0°C 27% 2.0 mph NE3.2 kmh NE 2.0 mph3.2 kmh -338605.1 mb - 0.00 in0.0 mm 0.00 in0.0 mm
06:42 PM 81.7°F27.6°C 44.4°F6.9°C 27% 2.0 mph NE3.2 kmh NE 2.9 mph4.7 kmh -338605.1 mb - 0.00 in0.0 mm 0.00 in0.0 mm
06:47 PM 81.7°F27.6°C 44.4°F6.9°C 27% 2.9 mph NE4.7 kmh NE 2.0 mph3.2 kmh -338605.1 mb - 0.00 in0.0 mm 0.00 in0.0 mm
06:52 PM 81.3°F27.4°C 44.1°F6.7°C 27% 2.9 mph NE4.7 kmh NE 0.9 mph1.4 kmh -338605.1 mb - 0.00 in0.0 mm 0.00 in0.0 mm
06:57 PM 81.1°F27.3°C 45.0°F7.2°C 28% 2.0 mph NE3.2 kmh NE 2.0 mph3.2 kmh -338605.1 mb - 0.00 in0.0 mm 0.00 in0.0 mm
07:02 PM 81.1°F27.3°C 45.0°F7.2°C 28% 2.0 mph NE3.2 kmh NE 2.9 mph4.7 kmh -338605.1 mb - 0.00 in0.0 mm 0.00 in0.0 mm
07:07 PM 80.8°F27.1°C 44.6°F7.0°C 28% 2.9 mph NE4.7 kmh NE 2.9 mph4.7 kmh -338605.1 mb - 0.00 in0.0 mm 0.00 in0.0 mm
07:12 PM 80.8°F27.1°C 44.6°F7.0°C 28% 2.9 mph NE4.7 kmh NE 2.9 mph4.7 kmh -338605.1 mb - 0.00 in0.0 mm 0.00 in0.0 mm
07:17 PM 80.4°F26.9°C 45.3°F7.4°C 29% 2.9 mph N4.7 kmh N 2.9 mph4.7 kmh -338605.1 mb - 0.00 in0.0 mm 0.00 in0.0 mm
07:22 PM 80.2°F26.8°C 45.1°F7.3°C 29% 2.9 mph N4.7 kmh N 4.0 mph6.4 kmh -338605.1 mb - 0.00 in0.0 mm 0.00 in0.0 mm
07:27 PM 80.2°F26.8°C 45.1°F7.3°C 29% 2.9 mph N4.7 kmh N 4.0 mph6.4 kmh -338605.1 mb - 0.00 in0.0 mm 0.00 in0.0 mm
07:32 PM 80.1°F26.7°C 45.0°F7.2°C 29% 4.0 mph N6.4 kmh N 2.9 mph4.7 kmh -338605.1 mb - 0.00 in0.0 mm 0.00 in0.0 mm
07:37 PM 79.9°F26.6°C 44.8°F7.1°C 29% 4.0 mph N6.4 kmh N 2.9 mph4.7 kmh -338605.1 mb - 0.00 in0.0 mm 0.00 in0.0 mm
07:42 PM 79.7°F26.5°C 44.6°F7.0°C 29% 4.0 mph N6.4 kmh N 2.9 mph4.7 kmh -338605.1 mb - 0.00 in0.0 mm 0.00 in0.0 mm
07:47 PM 79.5°F26.4°C 44.4°F6.9°C 29% 2.9 mph N4.7 kmh N 2.0 mph3.2 kmh -338605.1 mb - 0.00 in0.0 mm 0.00 in0.0 mm
07:52 PM 79.3°F26.3°C 45.1°F7.3°C 30% 2.0 mph N3.2 kmh N 0.9 mph1.4 kmh -338605.1 mb - 0.00 in0.0 mm 0.00 in0.0 mm
07:57 PM 79.2°F26.2°C 45.1°F7.3°C 30% 0.9 mph N1.4 kmh N 2.0 mph3.2 kmh -338605.1 mb - 0.00 in0.0 mm 0.00 in0.0 mm
08:02 PM 79.0°F26.1°C 45.0°F7.2°C 30% 0.9 mph N1.4 kmh N 0.9 mph1.4 kmh -338605.1 mb - 0.00 in0.0 mm 0.00 in0.0 mm
08:07 PM 78.6°F25.9°C 44.6°F7.0°C 30% 0.9 mph N1.4 kmh N -- -338605.1 mb - 0.00 in0.0 mm 0.00 in0.0 mm
08:12 PM 78.3°F25.7°C 45.1°F7.3°C 31% Calm Calm 2.0 mph3.2 kmh -338605.1 mb - 0.00 in0.0 mm 0.00 in0.0 mm
08:17 PM 78.3°F25.7°C 46.0°F7.8°C 32% 0.9 mph N1.4 kmh N 2.0 mph3.2 kmh -338605.1 mb - 0.00 in0.0 mm 0.00 in0.0 mm
08:22 PM 78.1°F25.6°C 45.0°F7.2°C 31% 0.9 mph N1.4 kmh N -- -338605.1 mb - 0.00 in0.0 mm 0.00 in0.0 mm
08:27 PM 77.7°F25.4°C 44.6°F7.0°C 31% 0.9 mph N1.4 kmh N 2.0 mph3.2 kmh -338605.1 mb - 0.00 in0.0 mm 0.00 in0.0 mm
08:32 PM 77.5°F25.3°C 44.6°F7.0°C 31% 0.9 mph N1.4 kmh N 2.9 mph4.7 kmh -338605.1 mb - 0.00 in0.0 mm 0.00 in0.0 mm
08:37 PM 77.4°F25.2°C 44.4°F6.9°C 31% 2.9 mph N4.7 kmh N 4.0 mph6.4 kmh -338605.1 mb - 0.00 in0.0 mm 0.00 in0.0 mm
08:42 PM 77.0°F25.0°C 45.0°F7.2°C 32% 2.9 mph NE4.7 kmh NE 2.9 mph4.7 kmh -338605.1 mb - 0.00 in0.0 mm 0.00 in0.0 mm
08:47 PM 76.8°F24.9°C 44.8°F7.1°C 32% 2.9 mph NE4.7 kmh NE 2.0 mph3.2 kmh -338605.1 mb - 0.00 in0.0 mm 0.00 in0.0 mm
08:52 PM 76.8°F24.9°C 44.8°F7.1°C 32% 2.9 mph NE4.7 kmh NE 2.9 mph4.7 kmh -338605.1 mb - 0.00 in0.0 mm 0.00 in0.0 mm
08:57 PM 76.6°F24.8°C 44.6°F7.0°C 32% 2.0 mph NE3.2 kmh NE 0.9 mph1.4 kmh -338605.1 mb - 0.00 in0.0 mm 0.00 in0.0 mm
09:02 PM 76.5°F24.7°C 44.4°F6.9°C 32% 2.0 mph NE3.2 kmh NE 2.0 mph3.2 kmh -338605.1 mb - 0.00 in0.0 mm 0.00 in0.0 mm
09:07 PM 76.5°F24.7°C 44.4°F6.9°C 32% 2.0 mph NE3.2 kmh NE 2.9 mph4.7 kmh -338605.1 mb - 0.00 in0.0 mm 0.00 in0.0 mm
09:12 PM 76.3°F24.6°C 45.1°F7.3°C 33% 2.0 mph NE3.2 kmh NE -- -338605.1 mb - 0.00 in0.0 mm 0.00 in0.0 mm
09:17 PM 76.1°F24.5°C 44.1°F6.7°C 32% 2.0 mph NE3.2 kmh NE -- -338605.1 mb - 0.00 in0.0 mm 0.00 in0.0 mm
09:22 PM 75.9°F24.4°C 44.8°F7.1°C 33% 0.9 mph NE1.4 kmh NE 2.0 mph3.2 kmh -338605.1 mb - 0.00 in0.0 mm 0.00 in0.0 mm
09:27 PM 75.9°F24.4°C 44.8°F7.1°C 33% 0.9 mph NE1.4 kmh NE -- -338605.1 mb - 0.00 in0.0 mm 0.00 in0.0 mm
09:32 PM 75.7°F24.3°C 44.6°F7.0°C 33% 0.9 mph NE1.4 kmh NE -- -338605.1 mb - 0.00 in0.0 mm 0.00 in0.0 mm
09:37 PM 75.7°F24.3°C 44.6°F7.0°C 33% Calm Calm -- -338605.1 mb - 0.00 in0.0 mm 0.00 in0.0 mm
09:42 PM 75.7°F24.3°C 44.6°F7.0°C 33% Calm Calm -- -338605.1 mb - 0.00 in0.0 mm 0.00 in0.0 mm
09:47 PM 75.6°F24.2°C 44.4°F6.9°C 33% 0.9 mph NE1.4 kmh NE 2.0 mph3.2 kmh -338605.1 mb - 0.00 in0.0 mm 0.00 in0.0 mm
09:52 PM 75.6°F24.2°C 45.1°F7.3°C 34% 0.9 mph NE1.4 kmh NE 2.9 mph4.7 kmh -338605.1 mb - 0.00 in0.0 mm 0.00 in0.0 mm
09:57 PM 75.6°F24.2°C 44.4°F6.9°C 33% 0.9 mph NE1.4 kmh NE 0.9 mph1.4 kmh -338605.1 mb - 0.00 in0.0 mm 0.00 in0.0 mm
10:02 PM 75.6°F24.2°C 45.1°F7.3°C 34% 2.0 mph SE3.2 kmh SE 2.0 mph3.2 kmh -338605.1 mb - 0.00 in0.0 mm 0.00 in0.0 mm
10:07 PM 75.6°F24.2°C 45.1°F7.3°C 34% 2.0 mph SE3.2 kmh SE -- -338605.1 mb - 0.00 in0.0 mm 0.00 in0.0 mm
10:12 PM 75.4°F24.1°C 45.1°F7.3°C 34% 0.9 mph SE1.4 kmh SE -- -338605.1 mb - 0.00 in0.0 mm 0.00 in0.0 mm
10:17 PM 75.4°F24.1°C 45.9°F7.7°C 35% 2.0 mph SE3.2 kmh SE 2.0 mph3.2 kmh -338605.1 mb - 0.00 in0.0 mm 0.00 in0.0 mm
10:22 PM 75.4°F24.1°C 45.9°F7.7°C 35% 2.9 mph SE4.7 kmh SE 0.9 mph1.4 kmh -338605.1 mb - 0.00 in0.0 mm 0.00 in0.0 mm
10:27 PM 75.4°F24.1°C 45.9°F7.7°C 35% 2.0 mph SE3.2 kmh SE 0.9 mph1.4 kmh -338605.1 mb - 0.00 in0.0 mm 0.00 in0.0 mm
10:32 PM 75.2°F24.0°C 45.7°F7.6°C 35% 2.0 mph SE3.2 kmh SE 0.9 mph1.4 kmh -338605.1 mb - 0.00 in0.0 mm 0.00 in0.0 mm
10:37 PM 75.4°F24.1°C 46.6°F8.1°C 36% 2.0 mph SE3.2 kmh SE 2.0 mph3.2 kmh -338605.1 mb - 0.00 in0.0 mm 0.00 in0.0 mm
10:42 PM 75.4°F24.1°C 46.6°F8.1°C 36% 2.9 mph SE4.7 kmh SE 2.0 mph3.2 kmh -338605.1 mb - 0.00 in0.0 mm 0.00 in0.0 mm
10:47 PM 75.4°F24.1°C 46.6°F8.1°C 36% 2.9 mph SE4.7 kmh SE 2.9 mph4.7 kmh -338605.1 mb - 0.00 in0.0 mm 0.00 in0.0 mm
10:52 PM 75.4°F24.1°C 46.6°F8.1°C 36% 2.9 mph SE4.7 kmh SE 4.0 mph6.4 kmh -338605.1 mb - 0.00 in0.0 mm 0.00 in0.0 mm
10:57 PM 75.4°F24.1°C 46.6°F8.1°C 36% 2.9 mph SE4.7 kmh SE 0.9 mph1.4 kmh -338605.1 mb - 0.00 in0.0 mm 0.00 in0.0 mm
11:02 PM 75.4°F24.1°C 46.6°F8.1°C 36% 2.9 mph SE4.7 kmh SE -- -338605.1 mb - 0.00 in0.0 mm 0.00 in0.0 mm
11:07 PM 75.2°F24.0°C 45.7°F7.6°C 35% 0.9 mph SE1.4 kmh SE -- -338605.1 mb - 0.00 in0.0 mm 0.00 in0.0 mm
11:12 PM 75.0°F23.9°C 45.5°F7.5°C 35% Calm Calm 0.9 mph1.4 kmh -338605.1 mb - 0.00 in0.0 mm 0.00 in0.0 mm
11:17 PM 75.0°F23.9°C 45.5°F7.5°C 35% 0.9 mph ESE1.4 kmh ESE -- -338605.1 mb - 0.00 in0.0 mm 0.00 in0.0 mm
11:22 PM 75.0°F23.9°C 44.8°F7.1°C 34% 0.9 mph ESE1.4 kmh ESE 0.9 mph1.4 kmh -338605.1 mb - 0.00 in0.0 mm 0.00 in0.0 mm
11:27 PM 75.0°F23.9°C 44.8°F7.1°C 34% 0.9 mph E1.4 kmh E 2.0 mph3.2 kmh -338605.1 mb - 0.00 in0.0 mm 0.00 in0.0 mm
11:32 PM 74.8°F23.8°C 44.6°F7.0°C 34% 2.0 mph E3.2 kmh E 2.9 mph4.7 kmh -338605.1 mb - 0.00 in0.0 mm 0.00 in0.0 mm
11:37 PM 74.7°F23.7°C 44.4°F6.9°C 34% 2.9 mph NW4.7 kmh NW 4.0 mph6.4 kmh -338605.1 mb - 0.00 in0.0 mm 0.00 in0.0 mm
11:42 PM 74.7°F23.7°C 44.4°F6.9°C 34% 4.0 mph WNW6.4 kmh WNW 6.0 mph9.7 kmh -338605.1 mb - 0.00 in0.0 mm 0.00 in0.0 mm
11:47 PM 74.1°F23.4°C 43.9°F6.6°C 34% 4.0 mph WNW6.4 kmh WNW 2.9 mph4.7 kmh -338605.1 mb - 0.00 in0.0 mm 0.00 in0.0 mm
11:52 PM 73.9°F23.3°C 43.9°F6.6°C 34% 4.0 mph WNW6.4 kmh WNW 4.0 mph6.4 kmh -338605.1 mb - 0.00 in0.0 mm 0.00 in0.0 mm
11:57 PM 73.8°F23.2°C 43.7°F6.5°C 34% 4.0 mph WNW6.4 kmh WNW 6.0 mph9.7 kmh -338605.1 mb - 0.00 in0.0 mm 0.00 in0.0 mm